Time;durP1;ratioP1;P1;durP2;ratioP2;P2;SDS_P1;SDS_P2;PMS_P1;PMS_P2;Temp;Humidity;BMP_temperature;BMP_pressure;BME280_temperature;BME280_humidity;BME280_pressure;Samples;Min_cycle;Max_cycle;Signal;HPM_P1;HPM_P2
2021/04/25 00:00:45;;;;;;;;;;;;;;;18.73;67.02;101084.50;4836690;29;1978;-69
2021/04/25 00:03:11;;;;;;;;;;;;;;;18.73;67.00;101090.63;4838271;29;1052;-69
2021/04/25 00:05:37;;;;;;;;;;;;;;;18.73;67.03;101089.78;4837155;29;1188;-69
2021/04/25 00:08:05;;;;;;;;;;;;;;;18.73;67.11;101095.91;4838034;29;1054;-70
2021/04/25 00:10:31;;;;;;;;;;;;;;;18.72;67.14;101099.50;4838298;29;1306;-70
2021/04/25 00:12:58;;;;;;;;;;;;;;;18.74;67.08;101115.25;4838089;29;1323;-70
2021/04/25 00:15:25;;;;;;;;;;;;;;;18.72;67.13;101111.84;4842752;29;1259;-71
2021/04/25 00:17:51;;;;;;;;;;;;;;;18.72;67.12;101104.78;4844609;29;855;-71
2021/04/25 00:20:19;;;;;;;;;;;;;;;18.72;67.14;101104.78;4827594;29;1931;-71
2021/04/25 00:22:46;;;;;;;;;;;;;;;18.71;67.16;101095.16;4844928;29;1258;-70
2021/04/25 00:25:13;;;;;;;;;;;;;;;18.72;67.22;101093.38;4844521;29;1298;-70
2021/04/25 00:27:39;;;;;;;;;;;;;;;18.72;67.18;101096.00;4844614;29;1175;-70
2021/04/25 00:30:07;;;;;;;;;;;;;;;18.72;67.05;101094.22;4844213;29;1227;-71
2021/04/25 00:32:34;;;;;;;;;;;;;;;18.72;67.15;101091.59;4827872;29;1340;-71
2021/04/25 00:35:05;;;;;;;;;;;;;;;18.73;67.20;101089.78;4844151;29;1258;-71
2021/04/25 00:37:31;;;;;;;;;;;;;;;18.73;67.27;101084.50;4842833;29;1408;-72
2021/04/25 00:39:57;;;;;;;;;;;;;;;18.75;67.24;101082.66;4844653;29;1915;-71
2021/04/25 00:42:24;;;;;;;;;;;;;;;18.72;67.18;101081.03;4844350;29;1213;-71
2021/04/25 00:44:51;;;;;;;;;;;;;;;18.73;67.30;101080.09;4844102;29;1340;-71
2021/04/25 00:47:17;;;;;;;;;;;;;;;18.73;67.26;101074.81;4842600;29;1335;-71
2021/04/25 00:49:44;;;;;;;;;;;;;;;18.74;67.18;101075.66;4843893;29;1325;-71
2021/04/25 00:52:10;;;;;;;;;;;;;;;18.73;67.19;101066.88;4842445;29;1286;-71
2021/04/25 00:54:36;;;;;;;;;;;;;;;18.73;67.11;101066.88;4842367;29;1216;-71
2021/04/25 00:57:03;;;;;;;;;;;;;;;18.73;67.25;101064.25;4842729;29;1285;-71
2021/04/25 00:59:30;;;;;;;;;;;;;;;18.73;67.27;101066.03;4844315;29;1923;-70
2021/04/25 01:01:56;;;;;;;;;;;;;;;18.74;67.18;101071.25;4844138;29;1049;-70
2021/04/25 01:04:23;;;;;;;;;;;;;;;18.73;67.30;101068.66;4843871;29;1243;-70
2021/04/25 01:06:49;;;;;;;;;;;;;;;18.72;67.41;101065.19;4844002;29;882;-70
2021/04/25 01:09:16;;;;;;;;;;;;;;;18.72;67.30;101052.00;4842944;29;864;-70
2021/04/25 01:11:42;;;;;;;;;;;;;;;18.74;67.19;101044.00;4843895;29;1028;-70
2021/04/25 01:14:08;;;;;;;;;;;;;;;18.71;67.42;101029.19;4843981;29;796;-70
2021/04/25 01:16:34;;;;;;;;;;;;;;;18.71;67.25;101029.19;4843853;29;1321;-70
2021/04/25 01:19:01;;;;;;;;;;;;;;;18.72;67.22;101030.91;4844188;29;1907;-70
2021/04/25 01:21:27;;;;;;;;;;;;;;;18.73;67.29;101031.72;4843663;29;1246;-70
2021/04/25 01:23:53;;;;;;;;;;;;;;;18.71;67.35;101026.53;4843950;29;848;-70
2021/04/25 01:26:20;;;;;;;;;;;;;;;18.72;67.37;101033.53;4839715;29;1316;-70
2021/04/25 01:28:46;;;;;;;;;;;;;;;18.72;67.30;101033.53;4839701;29;1299;-70
2021/04/25 01:31:12;;;;;;;;;;;;;;;18.71;67.38;101037.09;4840814;29;1211;-70
2021/04/25 01:33:38;;;;;;;;;;;;;;;18.72;67.39;101035.31;4839127;29;1178;-70
2021/04/25 01:36:05;;;;;;;;;;;;;;;18.71;67.29;101045.00;4839400;29;1294;-70
2021/04/25 01:38:31;;;;;;;;;;;;;;;18.72;67.36;101036.16;4840445;29;1090;-70
2021/04/25 01:40:57;;;;;;;;;;;;;;;18.71;67.19;101037.09;4840276;29;1988;-69
2021/04/25 01:43:23;;;;;;;;;;;;;;;18.71;67.17;101045.00;4840624;29;785;-70
2021/04/25 01:45:50;;;;;;;;;;;;;;;18.72;67.36;101045.88;4840028;29;1327;-70
2021/04/25 01:48:16;;;;;;;;;;;;;;;18.71;67.28;101039.72;4823589;29;1418;-70
2021/04/25 01:50:42;;;;;;;;;;;;;;;18.71;67.41;101042.38;4840150;29;1256;-70
2021/04/25 01:53:10;;;;;;;;;;;;;;;18.70;67.33;101038.00;4840200;29;1099;-70
2021/04/25 01:55:39;;;;;;;;;;;;;;;18.71;67.38;101038.88;4823733;29;1410;-70
2021/04/25 01:58:06;;;;;;;;;;;;;;;18.71;67.33;101034.47;4839188;29;1137;-71
2021/04/25 02:00:34;;;;;;;;;;;;;;;18.71;67.25;101037.09;4838970;29;1911;-71
2021/04/25 02:03:01;;;;;;;;;;;;;;;18.71;67.32;101034.47;4839948;29;1285;-70
2021/04/25 02:05:27;;;;;;;;;;;;;;;18.70;67.29;101030.09;4840001;29;1298;-71
2021/04/25 02:07:53;;;;;;;;;;;;;;;18.70;67.36;101038.00;4839126;29;1209;-71
2021/04/25 02:10:20;;;;;;;;;;;;;;;18.70;67.34;101040.66;4840147;29;1181;-71
2021/04/25 02:12:47;;;;;;;;;;;;;;;18.69;67.18;101036.34;4823675;29;1397;-71
2021/04/25 02:15:13;;;;;;;;;;;;;;;18.71;67.31;101036.25;4840569;29;1334;-71
2021/04/25 02:17:42;;;;;;;;;;;;;;;18.70;67.15;101030.09;4838841;29;1323;-71
2021/04/25 02:20:10;;;;;;;;;;;;;;;18.70;67.31;101031.88;4839818;29;1915;-70
2021/04/25 02:22:36;;;;;;;;;;;;;;;18.70;67.25;101029.25;4840269;29;1057;-71
2021/04/25 02:25:04;;;;;;;;;;;;;;;18.70;67.21;101027.47;4840025;29;1331;-70
2021/04/25 02:27:31;;;;;;;;;;;;;;;18.69;67.05;101033.69;4838297;29;1257;-70
2021/04/25 02:29:57;;;;;;;;;;;;;;;18.70;67.18;101024.81;4838236;29;1191;-70
2021/04/25 02:32:23;;;;;;;;;;;;;;;18.70;67.18;101026.59;4838151;29;1176;-70
2021/04/25 02:34:50;;;;;;;;;;;;;;;18.70;67.07;101014.28;4839606;29;1312;-70
2021/04/25 02:37:16;;;;;;;;;;;;;;;18.69;66.98;101015.22;4837788;29;1175;-71
2021/04/25 02:39:42;;;;;;;;;;;;;;;18.69;66.99;101009.94;4838328;29;1978;-70
2021/04/25 02:42:08;;;;;;;;;;;;;;;18.70;67.06;101000.22;4838310;29;882;-70
2021/04/25 02:44:35;;;;;;;;;;;;;;;18.69;67.05;100998.53;4839501;29;1223;-70
2021/04/25 02:47:01;;;;;;;;;;;;;;;18.69;66.89;101009.94;4839805;29;1460;-71
2021/04/25 02:49:28;;;;;;;;;;;;;;;18.68;66.92;101020.56;4838007;29;1349;-73
2021/04/25 02:51:54;;;;;;;;;;;;;;;18.67;66.88;101024.97;4839553;29;913;-71
2021/04/25 02:54:20;;;;;;;;;;;;;;;18.69;67.05;101031.06;4837901;29;1333;-70
2021/04/25 02:56:47;;;;;;;;;;;;;;;18.69;66.90;101032.84;4822889;29;1189;-71
2021/04/25 02:59:13;;;;;;;;;;;;;;;18.69;66.87;101043.38;4837584;29;1984;-70
2021/04/25 03:01:39;;;;;;;;;;;;;;;18.69;66.71;101040.75;4839260;29;1368;-70
2021/04/25 03:04:05;;;;;;;;;;;;;;;18.67;66.72;101030.25;4839362;29;788;-71
2021/04/25 03:06:32;;;;;;;;;;;;;;;18.67;66.71;101030.25;4839237;29;1332;-69
2021/04/25 03:08:58;;;;;;;;;;;;;;;18.68;66.73;101029.34;4839249;29;1025;-70
2021/04/25 03:11:24;;;;;;;;;;;;;;;18.68;66.84;101017.94;4836794;29;1266;-69
2021/04/25 03:13:51;;;;;;;;;;;;;;;18.67;66.92;101009.16;4839333;29;808;-69
2021/04/25 03:16:18;;;;;;;;;;;;;;;18.65;66.93;101005.75;4838985;29;1238;-69
2021/04/25 03:18:44;;;;;;;;;;;;;;;18.67;66.84;101006.50;4839022;29;790;-69
2021/04/25 03:21:12;;;;;;;;;;;;;;;18.67;66.71;100990.69;4838803;29;1923;-69
2021/04/25 03:23:40;;;;;;;;;;;;;;;18.68;66.83;100991.53;4839033;29;814;-69
2021/04/25 03:26:06;;;;;;;;;;;;;;;18.66;66.67;100988.13;4838695;29;1243;-69
2021/04/25 03:28:33;;;;;;;;;;;;;;;18.65;66.64;100987.28;4837214;29;1198;-70
2021/04/25 03:30:59;;;;;;;;;;;;;;;18.67;66.68;100981.91;4837204;29;1245;-69
2021/04/25 03:33:25;;;;;;;;;;;;;;;18.65;66.80;100966.16;4822148;29;1379;-69
2021/04/25 03:35:51;;;;;;;;;;;;;;;18.65;66.80;100973.22;4838695;29;1211;-70
2021/04/25 03:38:18;;;;;;;;;;;;;;;18.65;66.82;100963.53;4822637;29;1432;-69
2021/04/25 03:40:44;;;;;;;;;;;;;;;18.66;66.80;100967.88;4839106;29;1989;-69
2021/04/25 03:43:10;;;;;;;;;;;;;;;18.65;66.77;100968.81;4837502;29;1046;-69
2021/04/25 03:45:37;;;;;;;;;;;;;;;18.65;66.89;100966.16;4838463;29;1294;-69
2021/04/25 03:48:03;;;;;;;;;;;;;;;18.64;66.89;100956.53;4838332;29;1110;-69
2021/04/25 03:50:30;;;;;;;;;;;;;;;18.65;66.77;100949.47;4838599;29;1298;-69
2021/04/25 03:52:56;;;;;;;;;;;;;;;18.65;66.83;100944.22;4837368;29;1268;-70
2021/04/25 03:55:24;;;;;;;;;;;;;;;18.65;66.69;100949.47;4838218;29;1227;-70
2021/04/25 03:57:50;;;;;;;;;;;;;;;18.65;66.62;100950.34;4837346;29;1026;-70
2021/04/25 04:00:17;;;;;;;;;;;;;;;18.65;66.78;100947.69;4836843;29;2010;-71
2021/04/25 04:02:44;;;;;;;;;;;;;;;18.65;66.66;100939.78;4838377;29;1057;-70
2021/04/25 04:05:12;;;;;;;;;;;;;;;18.65;66.75;100944.22;4821940;29;1415;-70
2021/04/25 04:07:38;;;;;;;;;;;;;;;18.65;66.79;100938.94;4838588;29;1090;-70
2021/04/25 04:10:05;;;;;;;;;;;;;;;18.65;66.65;100938.94;4838599;29;1233;-70
2021/04/25 04:12:32;;;;;;;;;;;;;;;18.65;66.65;100933.66;4837137;29;1263;-70
2021/04/25 04:14:58;;;;;;;;;;;;;;;18.63;66.64;100932.91;4837788;29;1309;-70
2021/04/25 04:17:24;;;;;;;;;;;;;;;18.65;66.68;100928.38;4837244;29;1239;-71
2021/04/25 04:19:50;;;;;;;;;;;;;;;18.63;66.67;100912.66;4838164;29;1915;-70
2021/04/25 04:22:16;;;;;;;;;;;;;;;18.64;66.60;100916.97;4837071;29;1086;-70
2021/04/25 04:24:43;;;;;;;;;;;;;;;18.65;66.57;100912.53;4836932;29;1231;-70
2021/04/25 04:27:09;;;;;;;;;;;;;;;18.65;66.65;100913.41;4836963;29;907;-72
2021/04/25 04:29:36;;;;;;;;;;;;;;;18.65;66.47;100913.41;4838305;29;1242;-71
2021/04/25 04:32:02;;;;;;;;;;;;;;;18.64;66.64;100927.53;4838323;29;1142;-71
2021/04/25 04:34:29;;;;;;;;;;;;;;;18.64;66.51;100932.78;4838152;29;1312;-70
2021/04/25 04:36:55;;;;;;;;;;;;;;;18.64;66.57;100943.34;4838437;29;1150;-70
2021/04/25 04:39:21;;;;;;;;;;;;;;;18.63;66.63;100927.63;4838039;29;1911;-70
2021/04/25 04:41:47;;;;;;;;;;;;;;;18.63;66.58;100925.84;4838398;29;945;-70
2021/04/25 04:44:14;;;;;;;;;;;;;;;18.63;66.57;100919.69;4836856;29;844;-70
2021/04/25 04:46:40;;;;;;;;;;;;;;;18.64;66.58;100919.59;4837764;29;1603;-70
2021/04/25 04:49:06;;;;;;;;;;;;;;;18.62;66.47;100936.44;4836497;29;944;-70
2021/04/25 04:51:33;;;;;;;;;;;;;;;18.62;66.50;100932.03;4836467;29;1335;-71
2021/04/25 04:53:59;;;;;;;;;;;;;;;18.62;66.54;100939.94;4835528;29;1215;-70
2021/04/25 04:56:26;;;;;;;;;;;;;;;18.61;66.42;100927.69;4838171;29;1233;-70
2021/04/25 04:58:54;;;;;;;;;;;;;;;18.63;66.31;100924.97;4837978;29;832;-70
2021/04/25 05:01:20;;;;;;;;;;;;;;;18.64;66.47;100948.63;4824598;29;1986;-70
2021/04/25 05:03:47;;;;;;;;;;;;;;;18.62;66.45;100949.66;4841342;29;807;-70
2021/04/25 05:06:14;;;;;;;;;;;;;;;18.61;66.46;100932.97;4841219;29;1209;-71
2021/04/25 05:08:40;;;;;;;;;;;;;;;18.62;66.42;100944.38;4839844;29;883;-70
2021/04/25 05:11:06;;;;;;;;;;;;;;;18.62;66.52;100949.66;4841270;29;1223;-70
2021/04/25 05:13:32;;;;;;;;;;;;;;;18.62;66.44;100945.22;4841609;29;848;-70
2021/04/25 05:15:59;;;;;;;;;;;;;;;18.61;66.51;100948.78;4841614;29;1301;-70
2021/04/25 05:18:25;;;;;;;;;;;;;;;18.61;66.37;100938.22;4839702;29;888;-71
2021/04/25 05:20:52;;;;;;;;;;;;;;;18.62;66.46;100941.72;4839498;29;1915;-71
2021/04/25 05:23:18;;;;;;;;;;;;;;;18.62;66.47;100941.72;4840954;29;1148;-69
2021/04/25 05:25:44;;;;;;;;;;;;;;;18.54;66.18;100937.69;4840973;29;1227;-69
2021/04/25 05:28:10;;;;;;;;;;;;;;;18.61;66.48;100953.22;4839827;29;1340;-70
2021/04/25 05:30:37;;;;;;;;;;;;;;;18.62;66.50;100976.03;4840665;29;1159;-69
2021/04/25 05:33:03;;;;;;;;;;;;;;;18.61;66.45;100974.31;4840990;29;1235;-69
2021/04/25 05:35:29;;;;;;;;;;;;;;;18.60;66.53;100947.09;4839510;29;1329;-69
2021/04/25 05:37:56;;;;;;;;;;;;;;;18.60;66.35;100944.47;4841387;29;1363;-69
2021/04/25 05:40:22;;;;;;;;;;;;;;;18.60;66.46;100957.66;4838979;29;1955;-69
2021/04/25 05:42:48;;;;;;;;;;;;;;;18.60;66.49;100946.25;4841445;29;922;-69
2021/04/25 05:45:21;;;;;;;;;;;;;;;18.59;66.39;100940.13;4841187;29;1230;-70
2021/04/25 05:47:49;;;;;;;;;;;;;;;18.60;66.57;100933.91;4841708;29;1773;-68
2021/04/25 05:50:16;;;;;;;;;;;;;;;18.59;66.46;100942.75;4839556;29;1310;-69
2021/04/25 05:52:42;;;;;;;;;;;;;;;18.59;66.55;100940.13;4840860;29;906;-69
2021/04/25 05:55:08;;;;;;;;;;;;;;;18.59;66.50;100934.84;4840568;29;1245;-70
2021/04/25 05:57:35;;;;;;;;;;;;;;;18.60;66.45;100926.00;4839158;29;1175;-70
2021/04/25 06:00:02;;;;;;;;;;;;;;;18.59;66.42;100926.06;4839005;29;1923;-70
2021/04/25 06:02:28;;;;;;;;;;;;;;;18.59;66.37;100940.13;4839883;29;979;-71
2021/04/25 06:04:55;;;;;;;;;;;;;;;18.60;66.54;100943.59;4838496;29;1228;-70
2021/04/25 06:07:21;;;;;;;;;;;;;;;18.60;66.55;100935.69;4823804;29;1281;-70
2021/04/25 06:09:47;;;;;;;;;;;;;;;18.61;66.71;100932.09;4840225;29;1224;-68
2021/04/25 06:12:14;;;;;;;;;;;;;;;18.57;66.38;100944.63;4833422;29;1446;-68
2021/04/25 06:14:40;;;;;;;;;;;;;;;18.58;66.72;100948.94;4836555;29;1446;-70
2021/04/25 06:17:06;;;;;;;;;;;;;;;18.58;66.76;100946.31;4837450;29;1326;-72
2021/04/25 06:19:33;;;;;;;;;;;;;;;18.59;66.79;100953.31;4837581;29;1986;-72
2021/04/25 06:21:59;;;;;;;;;;;;;;;18.58;66.81;100967.41;4837763;29;1203;-71
2021/04/25 06:24:26;;;;;;;;;;;;;;;18.59;66.92;100971.78;4837691;29;1401;-69
2021/04/25 06:26:52;;;;;;;;;;;;;;;18.60;66.87;100978.78;4839379;29;1156;-70
2021/04/25 06:29:18;;;;;;;;;;;;;;;18.69;66.99;100995.91;4839008;29;1312;-68
2021/04/25 06:31:44;;;;;;;;;;;;;;;18.68;67.06;101000.31;4822450;29;1229;-69
2021/04/25 06:34:11;;;;;;;;;;;;;;;18.66;67.03;101007.47;4837531;29;1136;-70
2021/04/25 06:36:41;;;;;;;;;;;;;;;18.64;67.05;101000.53;4838640;29;1211;-69
2021/04/25 06:39:08;;;;;;;;;;;;;;;18.65;67.23;100994.34;4837525;29;1627;-70
2021/04/25 06:41:36;;;;;;;;;;;;;;;18.66;67.12;101004.81;4839662;29;1990;-71
2021/04/25 06:44:03;;;;;;;;;;;;;;;18.67;67.02;100995.97;4838181;29;1202;-74
2021/04/25 06:46:30;;;;;;;;;;;;;;;18.72;66.94;100999.22;4838124;29;1219;-74
2021/04/25 06:48:57;;;;;;;;;;;;;;;18.79;67.20;101003.22;4839341;29;785;-74
2021/04/25 06:51:23;;;;;;;;;;;;;;;18.79;67.15;101005.88;4837329;29;1408;-73
2021/04/25 06:53:49;;;;;;;;;;;;;;;18.76;67.37;101003.38;4839186;29;865;-70
2021/04/25 06:56:16;;;;;;;;;;;;;;;18.81;67.70;101022.50;4839389;29;1319;-70
2021/04/25 06:58:42;;;;;;;;;;;;;;;18.81;67.64;101040.97;4839336;29;1074;-71
2021/04/25 07:01:10;;;;;;;;;;;;;;;18.79;67.42;101053.38;4839256;29;1915;-73
2021/04/25 07:03:38;;;;;;;;;;;;;;;18.89;67.39;101043.19;4836367;29;1232;-70
2021/04/25 07:06:04;;;;;;;;;;;;;;;18.87;66.57;101030.09;4836606;29;1516;-72
2021/04/25 07:08:32;;;;;;;;;;;;;;;18.95;67.46;101021.75;4837966;29;1404;-67
2021/04/25 07:10:58;;;;;;;;;;;;;;;18.99;67.77;101026.78;4836204;29;1403;-69
2021/04/25 07:13:25;;;;;;;;;;;;;;;18.93;67.41;101023.63;4836780;29;1309;-67
2021/04/25 07:15:51;;;;;;;;;;;;;;;18.88;68.11;101031.78;4835903;29;1325;-70
2021/04/25 07:18:18;;;;;;;;;;;;;;;18.91;67.45;101031.59;4837793;29;1222;-69
2021/04/25 07:20:44;;;;;;;;;;;;;;;18.88;67.66;101037.06;4837797;29;1959;-74
2021/04/25 07:23:10;;;;;;;;;;;;;;;18.89;67.00;101044.03;4835770;29;1273;-76
2021/04/25 07:25:37;;;;;;;;;;;;;;;18.92;67.13;101053.59;4837991;29;1280;-76
2021/04/25 07:28:03;;;;;;;;;;;;;;;18.92;66.99;101054.44;4837135;29;1254;-71
2021/04/25 07:30:30;;;;;;;;;;;;;;;18.93;67.21;101071.13;4837730;29;1366;-72
2021/04/25 07:32:56;;;;;;;;;;;;;;;18.89;67.58;101065.16;4836576;29;1244;-70
2021/04/25 07:35:23;;;;;;;;;;;;;;;18.87;67.42;101045.94;4844008;29;1298;-73
2021/04/25 07:37:49;;;;;;;;;;;;;;;18.87;67.56;101051.22;4821385;29;1342;-71
2021/04/25 07:40:16;;;;;;;;;;;;;;;18.86;67.40;101062.69;4837590;29;1904;-70
2021/04/25 07:42:42;;;;;;;;;;;;;;;18.97;66.84;101051.53;4836513;29;1271;-72
2021/04/25 07:45:12;;;;;;;;;;;;;;;18.93;67.80;101057.94;4838333;29;1292;-71
2021/04/25 07:47:39;;;;;;;;;;;;;;;18.88;67.69;101062.59;4838683;29;1372;-71
2021/04/25 07:50:06;;;;;;;;;;;;;;;18.85;67.79;101068.88;4838385;29;1326;-72
2021/04/25 07:52:33;;;;;;;;;;;;;;;18.84;67.62;101085.69;4838837;29;1105;-73
2021/04/25 07:54:59;;;;;;;;;;;;;;;18.82;67.41;101095.44;4838874;29;1260;-73
2021/04/25 07:57:26;;;;;;;;;;;;;;;18.82;67.18;101097.22;4837765;29;1191;-71
2021/04/25 07:59:52;;;;;;;;;;;;;;;18.81;67.13;101098.19;4836917;29;1903;-71
2021/04/25 08:02:20;;;;;;;;;;;;;;;18.80;66.94;101086.75;4836664;29;1437;-71
2021/04/25 08:04:46;;;;;;;;;;;;;;;18.79;66.92;101092.97;4836793;29;1246;-70
2021/04/25 08:07:13;;;;;;;;;;;;;;;18.80;67.03;101092.03;4837159;29;1060;-72
2021/04/25 08:09:39;;;;;;;;;;;;;;;18.79;67.10;101100.03;4836897;29;1233;-71
2021/04/25 08:12:06;;;;;;;;;;;;;;;18.78;67.07;101099.19;4837956;29;1149;-71
2021/04/25 08:14:33;;;;;;;;;;;;;;;18.78;67.22;101109.75;4837128;29;1170;-71
2021/04/25 08:16:59;;;;;;;;;;;;;;;18.78;67.04;101124.72;4838412;29;1096;-71
2021/04/25 08:19:25;;;;;;;;;;;;;;;18.77;67.11;101134.41;4821640;29;1337;-71
2021/04/25 08:21:51;;;;;;;;;;;;;;;18.78;67.04;101135.28;4836734;29;1911;-70
2021/04/25 08:24:18;;;;;;;;;;;;;;;18.76;67.07;101130.06;4837902;29;1280;-71
2021/04/25 08:26:44;;;;;;;;;;;;;;;18.77;67.03;101128.28;4838136;29;1129;-70
2021/04/25 08:29:10;;;;;;;;;;;;;;;18.75;66.99;101131.03;4836355;29;1390;-70
2021/04/25 08:31:37;;;;;;;;;;;;;;;18.76;67.06;101121.28;4836157;29;1218;-70
2021/04/25 08:34:03;;;;;;;;;;;;;;;18.76;67.08;101124.78;4838235;29;1121;-70
2021/04/25 08:36:29;;;;;;;;;;;;;;;18.76;67.08;101116.88;4841507;29;1364;-69
2021/04/25 08:38:57;;;;;;;;;;;;;;;18.78;66.88;101107.13;4839983;29;1296;-70
2021/04/25 08:41:24;;;;;;;;;;;;;;;18.83;66.83;101091.88;4824742;29;1907;-69
2021/04/25 08:43:51;;;;;;;;;;;;;;;18.87;66.41;101077.59;4838812;29;1617;-69
2021/04/25 08:46:18;;;;;;;;;;;;;;;18.86;66.57;101060.03;4839874;29;1223;-68
2021/04/25 08:48:46;;;;;;;;;;;;;;;18.90;66.98;101032.56;4841626;29;745;-67
2021/04/25 08:51:14;;;;;;;;;;;;;;;18.92;67.12;100995.50;4839834;29;1465;-66
2021/04/25 08:53:40;;;;;;;;;;;;;;;18.94;66.91;100954.03;4840124;29;1010;-66
2021/04/25 08:56:07;;;;;;;;;;;;;;;18.99;66.92;100931.75;4824497;29;1254;-64
2021/04/25 08:58:34;;;;;;;;;;;;;;;19.00;66.10;100922.88;4839806;29;777;-67
2021/04/25 09:22:52;;;;;;;;;;;;;;;18.82;67.42;100937.09;5167389;27;1268;-71
2021/04/25 09:25:19;;;;;;;;;;;;;;;18.78;62.22;100926.78;5168362;27;911;-69
2021/04/25 09:27:46;;;;;;;;;;;;;;;18.83;64.67;100928.25;5166739;27;1964;-68
2021/04/25 09:30:19;;;;;;;;;;;;;;;18.84;63.00;100937.88;5168450;27;1917;-70
2021/04/25 09:32:59;;;;;;;;;;;;;;;18.87;63.38;100950.03;5168251;27;1283;-70
2021/04/25 09:35:25;;;;;;;;;;;;;;;18.95;62.67;100961.88;5166437;27;1194;-68
2021/04/25 09:37:51;;;;;;;;;;;;;;;18.81;61.57;100961.78;5166201;27;1243;-63
2021/04/25 09:40:22;;;;;;;;;;;;;;;18.69;60.48;100965.09;5168220;27;931;-63
2021/04/25 09:42:55;;;;;;;;;;;;;;;18.64;60.88;100961.81;5168265;27;1309;-64
2021/04/25 09:59:52;;;;;;;;;;;;;;;18.83;60.73;100943.22;5041996;26;1791;-72
2021/04/25 10:02:18;;;;;;;;;;;;;;;18.77;58.14;100935.63;5038462;28;1998;-72
2021/04/25 10:04:45;;;;;;;;;;;;;;;18.78;56.37;100938.19;5064387;28;1216;-72
2021/04/25 10:07:12;;;;;;;;;;;;;;;18.81;59.39;100932.75;5064886;28;1292;-73
2021/04/25 10:09:38;;;;;;;;;;;;;;;18.81;61.17;100929.25;5065031;28;1307;-68
2021/04/25 10:12:04;;;;;;;;;;;;;;;18.92;61.95;100933.03;5064373;28;1037;-66
2021/04/25 10:14:32;;;;;;;;;;;;;;;18.97;63.54;100936.25;5064634;28;1169;-65
2021/04/25 10:16:59;;;;;;;;;;;;;;;18.93;63.95;100932.09;5046324;28;1096;-66
2021/04/25 10:19:26;;;;;;;;;;;;;;;19.05;67.43;100936.69;5064800;28;1277;-67
2021/04/25 10:22:02;;;;;;;;;;;;;;;19.06;70.67;100938.38;5051502;28;1914;-68
2021/04/25 10:24:29;;;;;;;;;;;;;;;19.00;71.17;100943.13;5048055;28;1404;-69
2021/04/25 10:27:10;;;;;;;;;;;;;;;18.92;69.84;100956.78;5055033;28;806;-68
2021/04/25 10:30:03;;;;;;;;;;;;;;;18.90;72.05;100944.59;5070805;28;1265;-69
2021/04/25 10:32:30;;;;;;;;;;;;;;;18.86;71.65;100951.81;5067094;28;1310;-67
2021/04/25 10:35:13;;;;;;;;;;;;;;;18.87;68.82;100945.63;5070939;28;767;-70
2021/04/25 10:37:39;;;;;;;;;;;;;;;18.87;67.64;100948.25;5071175;28;1307;-72
2021/04/25 10:40:28;;;;;;;;;;;;;;;18.87;68.88;100939.50;5071025;28;814;-68
2021/04/25 10:42:54;;;;;;;;;;;;;;;18.82;67.79;100942.34;5071203;28;1260;-67
2021/04/25 10:45:30;;;;;;;;;;;;;;;18.82;70.22;100947.63;5071098;28;820;-67
2021/04/25 10:48:17;;;;;;;;;;;;;;;18.82;69.69;100947.63;5071145;28;1330;-67
2021/04/25 10:51:04;;;;;;;;;;;;;;;18.82;67.38;100945.00;5056085;28;929;-68
2021/04/25 10:53:32;;;;;;;;;;;;;;;18.91;65.67;100941.84;5052458;28;1307;-65
2021/04/25 10:56:13;;;;;;;;;;;;;;;18.92;64.65;100946.22;5071180;28;790;-65
2021/04/25 10:58:41;;;;;;;;;;;;;;;18.81;65.91;100935.41;5052794;28;1546;-66
2021/04/25 11:01:08;;;;;;;;;;;;;;;18.89;62.84;100937.59;5052626;28;1971;-65
2021/04/25 11:03:36;;;;;;;;;;;;;;;19.02;68.39;100936.88;5070137;28;1251;-69
2021/04/25 11:06:02;;;;;;;;;;;;;;;19.09;58.41;100938.22;5052380;28;1726;-69
2021/04/25 11:08:29;;;;;;;;;;;;;;;18.94;56.69;100931.13;5070660;28;1201;-70
2021/04/25 11:11:00;;;;;;;;;;;;;;;18.93;66.22;100923.31;5070640;28;762;-69
2021/04/25 11:13:33;;;;;;;;;;;;;;;18.89;61.86;100922.63;5036010;28;1390;-66
2021/04/25 11:16:01;;;;;;;;;;;;;;;18.88;64.67;100920.06;5070293;28;857;-67
2021/04/25 11:18:47;;;;;;;;;;;;;;;18.92;61.68;100916.31;5069657;28;1332;-68
2021/04/25 11:21:30;;;;;;;;;;;;;;;18.93;68.00;100908.34;5050944;28;1930;-69
2021/04/25 11:24:03;;;;;;;;;;;;;;;18.87;67.93;100899.91;5051603;28;1375;-71
2021/04/25 11:26:39;;;;;;;;;;;;;;;18.85;67.13;100902.59;5051607;28;1063;-70
2021/04/25 11:29:21;;;;;;;;;;;;;;;18.88;67.66;100899.78;5035003;28;1718;-70
2021/04/25 11:31:49;;;;;;;;;;;;;;;18.91;63.14;100904.03;5068922;28;830;-70
2021/04/25 11:34:25;;;;;;;;;;;;;;;18.93;62.69;100903.06;5067526;28;1278;-68
2021/04/25 11:36:55;;;;;;;;;;;;;;;19.05;59.96;100906.78;5069009;28;759;-69
2021/04/25 11:39:26;;;;;;;;;;;;;;;19.13;59.76;100888.72;5065757;28;1587;-66
2021/04/25 11:41:53;;;;;;;;;;;;;;;19.07;60.63;100886.44;5048823;28;1991;-68
2021/04/25 11:44:22;;;;;;;;;;;;;;;19.05;62.49;100891.81;5050012;28;1253;-66
2021/04/25 11:46:49;;;;;;;;;;;;;;;19.12;62.73;100883.56;5049766;28;1179;-65
2021/04/25 11:49:15;;;;;;;;;;;;;;;19.12;62.83;100886.19;5050007;28;1280;-65
2021/04/25 11:51:43;;;;;;;;;;;;;;;19.14;62.20;100892.22;5053064;28;813;-66
2021/04/25 11:54:19;;;;;;;;;;;;;;;19.16;63.41;100895.63;5051935;28;1338;-68
2021/04/25 11:56:46;;;;;;;;;;;;;;;19.13;63.34;100887.88;5050170;28;856;-73
2021/04/25 11:59:14;;;;;;;;;;;;;;;19.16;62.37;100871.84;5050003;28;1503;-69
2021/04/25 12:01:41;;;;;;;;;;;;;;;19.16;63.08;100862.16;5027787;28;1988;-68
2021/04/25 12:04:07;;;;;;;;;;;;;;;19.17;63.02;100865.66;5022293;28;1316;-67
2021/04/25 12:06:45;;;;;;;;;;;;;;;19.20;62.35;100868.97;5031158;28;1407;-65
2021/04/25 12:09:22;;;;;;;;;;;;;;;19.20;62.95;100871.59;5021242;28;1361;-66
2021/04/25 12:12:05;;;;;;;;;;;;;;;19.17;62.98;100871.78;5021694;28;1290;-65
2021/04/25 12:14:35;;;;;;;;;;;;;;;19.20;62.60;100868.13;5022902;28;1383;-66
2021/04/25 12:17:12;;;;;;;;;;;;;;;19.20;61.96;100862.84;5039777;28;1241;-65
2021/04/25 12:19:39;;;;;;;;;;;;;;;19.19;61.35;100861.13;5039883;28;1299;-68
2021/04/25 12:22:08;;;;;;;;;;;;;;;19.22;60.74;100860.94;5039692;28;1906;-68
2021/04/25 12:24:35;;;;;;;;;;;;;;;19.19;61.51;100853.19;5039072;28;1308;-68
2021/04/25 12:27:06;;;;;;;;;;;;;;;19.22;61.97;100851.25;5019803;28;1259;-68
2021/04/25 12:29:36;;;;;;;;;;;;;;;19.21;61.52;100860.09;5039019;28;1307;-67
2021/04/25 12:32:04;;;;;;;;;;;;;;;19.23;61.77;100852.09;5039958;28;1229;-67
2021/04/25 12:34:32;;;;;;;;;;;;;;;19.35;61.25;100859.31;5047318;28;1313;-67
2021/04/25 12:37:01;;;;;;;;;;;;;;;19.36;61.33;100850.47;5043120;28;1264;-67
2021/04/25 12:39:41;;;;;;;;;;;;;;;19.36;61.51;100845.19;5042494;28;1312;-67
2021/04/25 12:42:21;;;;;;;;;;;;;;;19.33;61.81;100848.00;5039324;28;1988;-67
2021/04/25 12:44:47;;;;;;;;;;;;;;;19.35;62.24;100852.25;5021798;28;1249;-78
2021/04/25 12:47:14;;;;;;;;;;;;;;;19.32;61.75;100855.06;5020215;28;1257;-69
2021/04/25 12:49:50;;;;;;;;;;;;;;;19.34;61.55;100849.69;5039521;28;1245;-67
2021/04/25 12:52:17;;;;;;;;;;;;;;;19.35;59.50;100848.75;5038227;28;1238;-67
2021/04/25 12:54:44;;;;;;;;;;;;;;;19.39;59.43;100840.59;5037169;28;1316;-67
2021/04/25 12:57:11;;;;;;;;;;;;;;;19.39;59.20;100834.44;5041906;28;1348;-67
2021/04/25 12:59:38;;;;;;;;;;;;;;;19.37;58.15;100833.66;5020665;28;1590;-69
2021/04/25 13:02:13;;;;;;;;;;;;;;;19.40;58.67;100844.06;5037307;28;1918;-66
2021/04/25 13:04:45;;;;;;;;;;;;;;;19.42;56.64;100847.50;5037422;28;1337;-65
2021/04/25 13:07:13;;;;;;;;;;;;;;;19.44;57.10;100845.59;5040026;28;1201;-66
2021/04/25 13:09:40;;;;;;;;;;;;;;;19.43;57.69;100841.25;5037778;28;1288;-67
2021/04/25 13:12:16;;;;;;;;;;;;;;;19.41;57.10;100840.50;5020672;28;1376;-67
2021/04/25 13:14:50;;;;;;;;;;;;;;;19.39;57.21;100839.72;5021241;28;1392;-66
2021/04/25 13:17:37;;;;;;;;;;;;;;;19.41;54.49;100840.50;5037035;28;1296;-67
2021/04/25 13:20:23;;;;;;;;;;;;;;;19.37;56.59;100850.34;5038144;28;2280;-66
2021/04/25 13:23:24;;;;;;;;;;;;;;;19.37;55.16;100849.50;5022687;28;1630;-66
2021/04/25 13:25:57;;;;;;;;;;;;;;;19.32;55.33;100847.13;5017646;28;1507;-67
2021/04/25 13:28:28;;;;;;;;;;;;;;;19.33;55.15;100842.72;5019378;28;1393;-66